sensor_id;sensor_type;location;lat;lon;timestamp;temperature;humidity
28069;DHT22;15382;47.578;8.086;2024-03-02T00:08:27;4.40;99.90
28069;DHT22;15382;47.578;8.086;2024-03-02T00:18:31;4.00;99.90
28069;DHT22;15382;47.578;8.086;2024-03-02T00:28:35;3.60;99.90
28069;DHT22;15382;47.578;8.086;2024-03-02T00:38:54;3.20;99.90
28069;DHT22;15382;47.578;8.086;2024-03-02T00:48:56;3.20;99.90
28069;DHT22;15382;47.578;8.086;2024-03-02T00:58:57;3.30;99.90
28069;DHT22;15382;47.578;8.086;2024-03-02T01:08:58;3.20;99.90
28069;DHT22;15382;47.578;8.086;2024-03-02T01:18:58;3.30;99.90
28069;DHT22;15382;47.578;8.086;2024-03-02T01:28:59;3.10;99.90
28069;DHT22;15382;47.578;8.086;2024-03-02T01:39:00;3.40;99.90
28069;DHT22;15382;47.578;8.086;2024-03-02T01:49:01;3.90;99.90
28069;DHT22;15382;47.578;8.086;2024-03-02T01:59:02;3.50;99.90
28069;DHT22;15382;47.578;8.086;2024-03-02T02:09:03;3.50;99.90
28069;DHT22;15382;47.578;8.086;2024-03-02T02:19:04;3.40;99.90
28069;DHT22;15382;47.578;8.086;2024-03-02T02:29:05;3.30;99.90
28069;DHT22;15382;47.578;8.086;2024-03-02T02:39:06;3.20;99.90
28069;DHT22;15382;47.578;8.086;2024-03-02T02:49:08;3.20;99.90
28069;DHT22;15382;47.578;8.086;2024-03-02T02:59:09;3.10;99.90
28069;DHT22;15382;47.578;8.086;2024-03-02T03:09:09;2.90;99.90
28069;DHT22;15382;47.578;8.086;2024-03-02T03:19:11;2.90;99.90
28069;DHT22;15382;47.578;8.086;2024-03-02T03:29:12;3.10;99.90
28069;DHT22;15382;47.578;8.086;2024-03-02T03:39:12;3.20;99.90
28069;DHT22;15382;47.578;8.086;2024-03-02T03:49:13;3.40;99.90
28069;DHT22;15382;47.578;8.086;2024-03-02T03:59:14;3.60;99.90
28069;DHT22;15382;47.578;8.086;2024-03-02T04:09:14;3.70;99.90
28069;DHT22;15382;47.578;8.086;2024-03-02T04:19:15;3.70;99.90
28069;DHT22;15382;47.578;8.086;2024-03-02T04:29:15;3.80;99.90
28069;DHT22;15382;47.578;8.086;2024-03-02T04:39:16;3.80;99.90
28069;DHT22;15382;47.578;8.086;2024-03-02T04:49:17;3.80;99.90
28069;DHT22;15382;47.578;8.086;2024-03-02T04:59:17;3.90;99.90
28069;DHT22;15382;47.578;8.086;2024-03-02T05:09:18;3.90;99.90
28069;DHT22;15382;47.578;8.086;2024-03-02T05:19:19;4.00;99.90
28069;DHT22;15382;47.578;8.086;2024-03-02T05:29:19;4.00;99.90
28069;DHT22;15382;47.578;8.086;2024-03-02T05:39:21;4.00;99.90
28069;DHT22;15382;47.578;8.086;2024-03-02T05:49:21;4.00;99.90
28069;DHT22;15382;47.578;8.086;2024-03-02T05:59:22;4.00;99.90
28069;DHT22;15382;47.578;8.086;2024-03-02T06:09:23;4.00;99.90
28069;DHT22;15382;47.578;8.086;2024-03-02T06:19:25;4.10;99.90
28069;DHT22;15382;47.578;8.086;2024-03-02T06:29:25;4.10;99.90
28069;DHT22;15382;47.578;8.086;2024-03-02T06:39:26;4.10;99.90
28069;DHT22;15382;47.578;8.086;2024-03-02T06:49:27;4.20;99.90
28069;DHT22;15382;47.578;8.086;2024-03-02T06:59:27;4.20;99.90
28069;DHT22;15382;47.578;8.086;2024-03-02T07:09:28;4.30;99.90
28069;DHT22;15382;47.578;8.086;2024-03-02T07:19:28;4.40;99.90
28069;DHT22;15382;47.578;8.086;2024-03-02T07:29:29;4.60;99.90
28069;DHT22;15382;47.578;8.086;2024-03-02T07:39:30;4.70;99.90
28069;DHT22;15382;47.578;8.086;2024-03-02T07:49:31;4.70;99.90
28069;DHT22;15382;47.578;8.086;2024-03-02T07:59:31;4.90;99.90
28069;DHT22;15382;47.578;8.086;2024-03-02T08:09:32;5.10;99.90
28069;DHT22;15382;47.578;8.086;2024-03-02T08:19:33;5.30;99.90
28069;DHT22;15382;47.578;8.086;2024-03-02T08:29:33;5.70;99.90
28069;DHT22;15382;47.578;8.086;2024-03-02T08:39:34;6.60;99.90
28069;DHT22;15382;47.578;8.086;2024-03-02T08:49:35;8.00;99.90
28069;DHT22;15382;47.578;8.086;2024-03-02T08:59:35;8.60;99.90
28069;DHT22;15382;47.578;8.086;2024-03-02T09:09:36;9.00;99.90
28069;DHT22;15382;47.578;8.086;2024-03-02T09:19:39;10.00;99.90
28069;DHT22;15382;47.578;8.086;2024-03-02T09:29:39;11.00;99.90
28069;DHT22;15382;47.578;8.086;2024-03-02T09:39:40;10.80;99.90
28069;DHT22;15382;47.578;8.086;2024-03-02T09:49:43;12.20;99.90
28069;DHT22;15382;47.578;8.086;2024-03-02T09:59:44;13.40;99.90
28069;DHT22;15382;47.578;8.086;2024-03-02T10:09:46;13.90;99.90
28069;DHT22;15382;47.578;8.086;2024-03-02T10:19:47;13.30;99.90
28069;DHT22;15382;47.578;8.086;2024-03-02T10:29:50;13.90;99.90
28069;DHT22;15382;47.578;8.086;2024-03-02T10:39:51;14.10;99.90
28069;DHT22;15382;47.578;8.086;2024-03-02T10:49:52;14.60;99.90
28069;DHT22;15382;47.578;8.086;2024-03-02T10:59:57;14.80;99.90
28069;DHT22;15382;47.578;8.086;2024-03-02T11:10:02;14.10;99.90
28069;DHT22;15382;47.578;8.086;2024-03-02T11:20:08;15.50;99.90
28069;DHT22;15382;47.578;8.086;2024-03-02T11:30:09;14.40;99.90
28069;DHT22;15382;47.578;8.086;2024-03-02T11:40:30;14.10;99.90
28069;DHT22;15382;47.578;8.086;2024-03-02T11:50:35;16.50;99.90
28069;DHT22;15382;47.578;8.086;2024-03-02T12:00:39;15.90;99.90
28069;DHT22;15382;47.578;8.086;2024-03-02T12:10:39;15.70;99.90
28069;DHT22;15382;47.578;8.086;2024-03-02T12:20:40;16.90;99.90
28069;DHT22;15382;47.578;8.086;2024-03-02T12:30:41;17.00;99.90
28069;DHT22;15382;47.578;8.086;2024-03-02T12:40:41;16.10;99.90
28069;DHT22;15382;47.578;8.086;2024-03-02T12:50:42;17.10;99.90
28069;DHT22;15382;47.578;8.086;2024-03-02T13:00:44;17.30;99.90
28069;DHT22;15382;47.578;8.086;2024-03-02T13:10:45;17.50;99.90
28069;DHT22;15382;47.578;8.086;2024-03-02T13:20:46;17.70;99.90
28069;DHT22;15382;47.578;8.086;2024-03-02T13:30:46;16.30;99.90
28069;DHT22;15382;47.578;8.086;2024-03-02T13:40:48;14.90;99.90
28069;DHT22;15382;47.578;8.086;2024-03-02T13:50:51;14.90;99.90
28069;DHT22;15382;47.578;8.086;2024-03-02T14:00:53;14.70;99.90
28069;DHT22;15382;47.578;8.086;2024-03-02T14:10:54;14.60;99.90
28069;DHT22;15382;47.578;8.086;2024-03-02T14:20:55;14.10;99.90
28069;DHT22;15382;47.578;8.086;2024-03-02T14:30:57;13.90;99.90
28069;DHT22;15382;47.578;8.086;2024-03-02T14:40:57;14.10;99.90
28069;DHT22;15382;47.578;8.086;2024-03-02T14:50:59;14.00;99.90
28069;DHT22;15382;47.578;8.086;2024-03-02T15:00:59;13.30;99.90
28069;DHT22;15382;47.578;8.086;2024-03-02T15:11:00;12.90;99.90
28069;DHT22;15382;47.578;8.086;2024-03-02T15:21:01;13.30;99.90
28069;DHT22;15382;47.578;8.086;2024-03-02T15:31:02;13.40;99.90
28069;DHT22;15382;47.578;8.086;2024-03-02T15:41:04;13.70;99.90
28069;DHT22;15382;47.578;8.086;2024-03-02T15:51:05;14.40;99.90
28069;DHT22;15382;47.578;8.086;2024-03-02T16:01:06;14.80;99.90
28069;DHT22;15382;47.578;8.086;2024-03-02T16:11:06;14.30;99.90
28069;DHT22;15382;47.578;8.086;2024-03-02T16:21:08;13.00;99.90
28069;DHT22;15382;47.578;8.086;2024-03-02T16:31:08;12.40;99.90
28069;DHT22;15382;47.578;8.086;2024-03-02T16:41:10;12.20;99.90
28069;DHT22;15382;47.578;8.086;2024-03-02T16:51:11;11.90;99.90
28069;DHT22;15382;47.578;8.086;2024-03-02T17:01:11;11.50;99.90
28069;DHT22;15382;47.578;8.086;2024-03-02T17:11:12;10.80;99.90
28069;DHT22;15382;47.578;8.086;2024-03-02T17:21:13;10.30;99.90
28069;DHT22;15382;47.578;8.086;2024-03-02T17:31:13;10.30;99.90
28069;DHT22;15382;47.578;8.086;2024-03-02T17:41:14;10.60;99.90
28069;DHT22;15382;47.578;8.086;2024-03-02T17:51:15;9.80;99.90
28069;DHT22;15382;47.578;8.086;2024-03-02T18:01:16;9.30;99.90
28069;DHT22;15382;47.578;8.086;2024-03-02T18:11:17;9.10;99.90
28069;DHT22;15382;47.578;8.086;2024-03-02T18:21:18;8.90;99.90
28069;DHT22;15382;47.578;8.086;2024-03-02T18:31:19;9.00;99.90
28069;DHT22;15382;47.578;8.086;2024-03-02T18:41:22;8.90;99.90
28069;DHT22;15382;47.578;8.086;2024-03-02T18:51:23;8.90;99.90
28069;DHT22;15382;47.578;8.086;2024-03-02T19:01:23;8.80;99.90
28069;DHT22;15382;47.578;8.086;2024-03-02T19:11:24;8.90;99.90
28069;DHT22;15382;47.578;8.086;2024-03-02T19:21:25;8.80;99.90
28069;DHT22;15382;47.578;8.086;2024-03-02T19:31:25;8.90;99.90
28069;DHT22;15382;47.578;8.086;2024-03-02T19:41:26;8.80;99.90
28069;DHT22;15382;47.578;8.086;2024-03-02T19:51:27;8.80;99.90
28069;DHT22;15382;47.578;8.086;2024-03-02T20:01:29;8.70;99.90
28069;DHT22;15382;47.578;8.086;2024-03-02T20:11:32;8.80;99.90
28069;DHT22;15382;47.578;8.086;2024-03-02T20:21:33;8.80;99.90
28069;DHT22;15382;47.578;8.086;2024-03-02T20:31:36;9.10;99.90
28069;DHT22;15382;47.578;8.086;2024-03-02T20:41:37;9.30;99.90
28069;DHT22;15382;47.578;8.086;2024-03-02T20:51:38;9.30;99.90
28069;DHT22;15382;47.578;8.086;2024-03-02T21:01:38;9.20;99.90
28069;DHT22;15382;47.578;8.086;2024-03-02T21:11:39;8.80;99.90
28069;DHT22;15382;47.578;8.086;2024-03-02T21:21:41;8.30;99.90
28069;DHT22;15382;47.578;8.086;2024-03-02T21:31:41;8.20;99.90
28069;DHT22;15382;47.578;8.086;2024-03-02T21:41:42;8.10;99.90
28069;DHT22;15382;47.578;8.086;2024-03-02T21:51:44;8.20;99.90
28069;DHT22;15382;47.578;8.086;2024-03-02T22:01:45;8.10;99.90
28069;DHT22;15382;47.578;8.086;2024-03-02T22:11:45;7.90;99.90
28069;DHT22;15382;47.578;8.086;2024-03-02T22:21:46;7.90;99.90
28069;DHT22;15382;47.578;8.086;2024-03-02T22:31:47;7.60;99.90
28069;DHT22;15382;47.578;8.086;2024-03-02T22:41:47;7.70;99.90
28069;DHT22;15382;47.578;8.086;2024-03-02T22:51:51;7.60;99.90
28069;DHT22;15382;47.578;8.086;2024-03-02T23:01:51;7.60;99.90
28069;DHT22;15382;47.578;8.086;2024-03-02T23:11:52;7.60;99.90
28069;DHT22;15382;47.578;8.086;2024-03-02T23:21:52;7.40;99.90
28069;DHT22;15382;47.578;8.086;2024-03-02T23:31:53;7.30;99.90
28069;DHT22;15382;47.578;8.086;2024-03-02T23:41:54;7.30;99.90
28069;DHT22;15382;47.578;8.086;2024-03-02T23:51:54;7.10;99.90
